sensor_id;sensor_type;location;lat;lon;timestamp;P1;durP1;ratioP1;P2;durP2;ratioP2
2362;SDS011;64265;51.664;7.626;2023-06-14T00:00:33;4.13;;;3.73;;
2362;SDS011;64265;51.664;7.626;2023-06-14T00:03:00;4.23;;;3.90;;
2362;SDS011;64265;51.664;7.626;2023-06-14T00:05:27;5.27;;;4.13;;
2362;SDS011;64265;51.664;7.626;2023-06-14T00:07:54;4.60;;;3.33;;
2362;SDS011;64265;51.664;7.626;2023-06-14T00:10:22;5.40;;;4.90;;
2362;SDS011;64265;51.664;7.626;2023-06-14T00:12:49;6.73;;;4.40;;
2362;SDS011;64265;51.664;7.626;2023-06-14T00:15:16;5.90;;;4.10;;
2362;SDS011;64265;51.664;7.626;2023-06-14T00:17:42;5.60;;;5.10;;
2362;SDS011;64265;51.664;7.626;2023-06-14T00:20:12;5.47;;;4.30;;
2362;SDS011;64265;51.664;7.626;2023-06-14T00:22:39;5.20;;;3.93;;
2362;SDS011;64265;51.664;7.626;2023-06-14T00:25:06;4.23;;;3.80;;
2362;SDS011;64265;51.664;7.626;2023-06-14T00:27:34;3.40;;;3.10;;
2362;SDS011;64265;51.664;7.626;2023-06-14T00:30:01;4.47;;;4.10;;
2362;SDS011;64265;51.664;7.626;2023-06-14T00:32:27;4.40;;;3.97;;
2362;SDS011;64265;51.664;7.626;2023-06-14T00:34:54;4.67;;;4.27;;
2362;SDS011;64265;51.664;7.626;2023-06-14T00:37:21;3.57;;;3.27;;
2362;SDS011;64265;51.664;7.626;2023-06-14T00:39:48;4.53;;;4.20;;
2362;SDS011;64265;51.664;7.626;2023-06-14T00:42:22;4.47;;;4.10;;
2362;SDS011;64265;51.664;7.626;2023-06-14T00:44:51;3.87;;;3.57;;
2362;SDS011;64265;51.664;7.626;2023-06-14T00:47:18;3.73;;;3.43;;
2362;SDS011;64265;51.664;7.626;2023-06-14T00:49:45;3.97;;;3.57;;
2362;SDS011;64265;51.664;7.626;2023-06-14T00:52:13;4.40;;;4.10;;
2362;SDS011;64265;51.664;7.626;2023-06-14T00:54:40;4.00;;;3.70;;
2362;SDS011;64265;51.664;7.626;2023-06-14T00:57:07;3.70;;;3.40;;
2362;SDS011;64265;51.664;7.626;2023-06-14T00:59:35;5.27;;;4.77;;
2362;SDS011;64265;51.664;7.626;2023-06-14T01:02:08;4.83;;;4.30;;
2362;SDS011;64265;51.664;7.626;2023-06-14T01:04:35;4.53;;;3.80;;
2362;SDS011;64265;51.664;7.626;2023-06-14T01:07:04;6.90;;;4.50;;
2362;SDS011;64265;51.664;7.626;2023-06-14T01:09:42;4.73;;;3.30;;
2362;SDS011;64265;51.664;7.626;2023-06-14T01:12:20;4.23;;;3.50;;
2362;SDS011;64265;51.664;7.626;2023-06-14T01:14:54;4.60;;;4.20;;
2362;SDS011;64265;51.664;7.626;2023-06-14T01:17:24;3.83;;;3.43;;
2362;SDS011;64265;51.664;7.626;2023-06-14T01:19:51;4.13;;;3.83;;
2362;SDS011;64265;51.664;7.626;2023-06-14T01:22:23;3.47;;;3.03;;
2362;SDS011;64265;51.664;7.626;2023-06-14T01:24:52;4.30;;;3.90;;
2362;SDS011;64265;51.664;7.626;2023-06-14T01:27:20;3.90;;;3.60;;
2362;SDS011;64265;51.664;7.626;2023-06-14T01:29:49;3.70;;;3.40;;
2362;SDS011;64265;51.664;7.626;2023-06-14T01:32:16;4.10;;;3.60;;
2362;SDS011;64265;51.664;7.626;2023-06-14T01:34:44;6.43;;;3.10;;
2362;SDS011;64265;51.664;7.626;2023-06-14T01:37:11;4.00;;;3.60;;
2362;SDS011;64265;51.664;7.626;2023-06-14T01:39:39;3.40;;;3.10;;
2362;SDS011;64265;51.664;7.626;2023-06-14T01:42:10;4.00;;;3.60;;
2362;SDS011;64265;51.664;7.626;2023-06-14T01:44:38;6.70;;;3.83;;
2362;SDS011;64265;51.664;7.626;2023-06-14T01:47:06;3.97;;;3.50;;
2362;SDS011;64265;51.664;7.626;2023-06-14T01:49:34;3.13;;;2.87;;
2362;SDS011;64265;51.664;7.626;2023-06-14T01:52:00;6.27;;;4.00;;
2362;SDS011;64265;51.664;7.626;2023-06-14T01:54:27;5.63;;;3.27;;
2362;SDS011;64265;51.664;7.626;2023-06-14T01:56:54;5.33;;;3.03;;
2362;SDS011;64265;51.664;7.626;2023-06-14T01:59:22;4.73;;;3.20;;
2362;SDS011;64265;51.664;7.626;2023-06-14T02:01:49;4.10;;;3.70;;
2362;SDS011;64265;51.664;7.626;2023-06-14T02:04:16;6.50;;;3.20;;
2362;SDS011;64265;51.664;7.626;2023-06-14T02:06:43;4.10;;;3.60;;
2362;SDS011;64265;51.664;7.626;2023-06-14T02:09:09;4.03;;;3.40;;
2362;SDS011;64265;51.664;7.626;2023-06-14T02:11:36;4.50;;;3.77;;
2362;SDS011;64265;51.664;7.626;2023-06-14T02:14:03;4.37;;;3.97;;
2362;SDS011;64265;51.664;7.626;2023-06-14T02:16:31;3.70;;;3.40;;
2362;SDS011;64265;51.664;7.626;2023-06-14T02:19:00;4.80;;;3.90;;
2362;SDS011;64265;51.664;7.626;2023-06-14T02:21:27;3.87;;;3.47;;
2362;SDS011;64265;51.664;7.626;2023-06-14T02:23:54;3.93;;;3.63;;
2362;SDS011;64265;51.664;7.626;2023-06-14T02:26:20;3.00;;;2.80;;
2362;SDS011;64265;51.664;7.626;2023-06-14T02:28:48;7.63;;;3.37;;
2362;SDS011;64265;51.664;7.626;2023-06-14T02:31:15;3.87;;;3.43;;
2362;SDS011;64265;51.664;7.626;2023-06-14T02:33:43;3.93;;;3.57;;
2362;SDS011;64265;51.664;7.626;2023-06-14T02:36:10;3.60;;;3.30;;
2362;SDS011;64265;51.664;7.626;2023-06-14T02:38:36;5.57;;;3.70;;
2362;SDS011;64265;51.664;7.626;2023-06-14T02:41:03;3.60;;;3.23;;
2362;SDS011;64265;51.664;7.626;2023-06-14T02:43:31;3.00;;;2.80;;
2362;SDS011;64265;51.664;7.626;2023-06-14T02:45:57;3.27;;;2.97;;
2362;SDS011;64265;51.664;7.626;2023-06-14T02:48:24;4.47;;;3.47;;
2362;SDS011;64265;51.664;7.626;2023-06-14T02:50:52;3.23;;;2.97;;
2362;SDS011;64265;51.664;7.626;2023-06-14T02:53:19;3.90;;;3.50;;
2362;SDS011;64265;51.664;7.626;2023-06-14T02:55:45;4.03;;;3.63;;
2362;SDS011;64265;51.664;7.626;2023-06-14T02:58:13;3.63;;;3.33;;
2362;SDS011;64265;51.664;7.626;2023-06-14T03:00:41;3.80;;;3.30;;
2362;SDS011;64265;51.664;7.626;2023-06-14T03:03:08;3.33;;;3.03;;
2362;SDS011;64265;51.664;7.626;2023-06-14T03:05:38;3.87;;;3.50;;
2362;SDS011;64265;51.664;7.626;2023-06-14T03:08:12;3.50;;;3.13;;
2362;SDS011;64265;51.664;7.626;2023-06-14T03:10:41;3.50;;;3.20;;
2362;SDS011;64265;51.664;7.626;2023-06-14T03:13:09;4.33;;;3.70;;
2362;SDS011;64265;51.664;7.626;2023-06-14T03:15:37;3.40;;;3.10;;
2362;SDS011;64265;51.664;7.626;2023-06-14T03:18:06;3.87;;;3.30;;
2362;SDS011;64265;51.664;7.626;2023-06-14T03:20:33;3.50;;;3.20;;
2362;SDS011;64265;51.664;7.626;2023-06-14T03:23:00;3.73;;;3.03;;
2362;SDS011;64265;51.664;7.626;2023-06-14T03:25:28;5.50;;;3.17;;
2362;SDS011;64265;51.664;7.626;2023-06-14T03:27:56;3.53;;;3.23;;
2362;SDS011;64265;51.664;7.626;2023-06-14T03:30:22;3.73;;;3.43;;
2362;SDS011;64265;51.664;7.626;2023-06-14T03:32:49;4.53;;;3.50;;
2362;SDS011;64265;51.664;7.626;2023-06-14T03:35:17;5.03;;;3.60;;
2362;SDS011;64265;51.664;7.626;2023-06-14T03:37:43;3.83;;;3.53;;
2362;SDS011;64265;51.664;7.626;2023-06-14T03:40:11;3.20;;;3.00;;
2362;SDS011;64265;51.664;7.626;2023-06-14T03:42:39;3.57;;;3.27;;
2362;SDS011;64265;51.664;7.626;2023-06-14T03:45:07;3.20;;;2.90;;
2362;SDS011;64265;51.664;7.626;2023-06-14T03:47:34;3.10;;;2.80;;
2362;SDS011;64265;51.664;7.626;2023-06-14T03:50:01;3.40;;;3.10;;
2362;SDS011;64265;51.664;7.626;2023-06-14T03:52:28;3.40;;;2.80;;
2362;SDS011;64265;51.664;7.626;2023-06-14T03:54:56;2.93;;;2.70;;
2362;SDS011;64265;51.664;7.626;2023-06-14T03:57:24;4.00;;;3.17;;
2362;SDS011;64265;51.664;7.626;2023-06-14T03:59:52;3.30;;;2.80;;
2362;SDS011;64265;51.664;7.626;2023-06-14T04:02:19;3.40;;;3.10;;
2362;SDS011;64265;51.664;7.626;2023-06-14T04:04:45;3.40;;;2.90;;
2362;SDS011;64265;51.664;7.626;2023-06-14T04:07:13;2.90;;;2.70;;
2362;SDS011;64265;51.664;7.626;2023-06-14T04:09:40;4.03;;;2.90;;
2362;SDS011;64265;51.664;7.626;2023-06-14T04:12:07;3.80;;;3.33;;
2362;SDS011;64265;51.664;7.626;2023-06-14T04:14:36;3.23;;;2.93;;
2362;SDS011;64265;51.664;7.626;2023-06-14T04:17:04;3.00;;;2.80;;
2362;SDS011;64265;51.664;7.626;2023-06-14T04:19:31;3.67;;;3.37;;
2362;SDS011;64265;51.664;7.626;2023-06-14T04:21:58;2.97;;;2.77;;
2362;SDS011;64265;51.664;7.626;2023-06-14T04:24:26;3.30;;;3.00;;
2362;SDS011;64265;51.664;7.626;2023-06-14T04:26:57;2.87;;;2.63;;
2362;SDS011;64265;51.664;7.626;2023-06-14T04:29:26;3.27;;;2.97;;
2362;SDS011;64265;51.664;7.626;2023-06-14T04:31:54;2.87;;;2.67;;
2362;SDS011;64265;51.664;7.626;2023-06-14T04:34:25;3.50;;;3.20;;
2362;SDS011;64265;51.664;7.626;2023-06-14T04:36:54;2.90;;;2.63;;
2362;SDS011;64265;51.664;7.626;2023-06-14T04:39:22;3.50;;;3.20;;
2362;SDS011;64265;51.664;7.626;2023-06-14T04:41:50;3.30;;;3.00;;
2362;SDS011;64265;51.664;7.626;2023-06-14T04:44:22;3.13;;;2.93;;
2362;SDS011;64265;51.664;7.626;2023-06-14T04:46:54;2.80;;;2.60;;
2362;SDS011;64265;51.664;7.626;2023-06-14T04:49:21;3.03;;;2.73;;
2362;SDS011;64265;51.664;7.626;2023-06-14T04:51:50;8.47;;;3.03;;
2362;SDS011;64265;51.664;7.626;2023-06-14T04:54:22;3.23;;;3.03;;
2362;SDS011;64265;51.664;7.626;2023-06-14T04:56:50;2.67;;;2.47;;
2362;SDS011;64265;51.664;7.626;2023-06-14T04:59:18;3.60;;;3.30;;
2362;SDS011;64265;51.664;7.626;2023-06-14T05:01:45;2.80;;;2.60;;
2362;SDS011;64265;51.664;7.626;2023-06-14T05:04:13;3.37;;;3.00;;
2362;SDS011;64265;51.664;7.626;2023-06-14T05:06:39;4.57;;;3.40;;
2362;SDS011;64265;51.664;7.626;2023-06-14T05:09:07;3.37;;;3.07;;
2362;SDS011;64265;51.664;7.626;2023-06-14T05:11:34;4.37;;;3.33;;
2362;SDS011;64265;51.664;7.626;2023-06-14T05:14:01;3.93;;;3.47;;
2362;SDS011;64265;51.664;7.626;2023-06-14T05:16:27;7.63;;;2.97;;
2362;SDS011;64265;51.664;7.626;2023-06-14T05:18:54;3.80;;;3.50;;
2362;SDS011;64265;51.664;7.626;2023-06-14T05:21:21;3.90;;;3.50;;
2362;SDS011;64265;51.664;7.626;2023-06-14T05:23:48;3.70;;;3.40;;
2362;SDS011;64265;51.664;7.626;2023-06-14T05:26:17;4.03;;;3.57;;
2362;SDS011;64265;51.664;7.626;2023-06-14T05:28:43;3.60;;;3.30;;
2362;SDS011;64265;51.664;7.626;2023-06-14T05:31:10;4.53;;;3.03;;
2362;SDS011;64265;51.664;7.626;2023-06-14T05:33:37;3.20;;;2.90;;
2362;SDS011;64265;51.664;7.626;2023-06-14T05:36:03;3.33;;;3.03;;
2362;SDS011;64265;51.664;7.626;2023-06-14T05:38:30;5.10;;;3.40;;
2362;SDS011;64265;51.664;7.626;2023-06-14T05:40:57;3.50;;;3.20;;
2362;SDS011;64265;51.664;7.626;2023-06-14T05:43:25;3.30;;;2.97;;
2362;SDS011;64265;51.664;7.626;2023-06-14T05:45:52;2.93;;;2.63;;
2362;SDS011;64265;51.664;7.626;2023-06-14T05:48:19;4.40;;;3.10;;
2362;SDS011;64265;51.664;7.626;2023-06-14T05:50:46;3.60;;;3.30;;
2362;SDS011;64265;51.664;7.626;2023-06-14T05:53:13;3.70;;;3.40;;
2362;SDS011;64265;51.664;7.626;2023-06-14T05:55:39;3.47;;;3.23;;
2362;SDS011;64265;51.664;7.626;2023-06-14T05:58:06;3.60;;;3.30;;
2362;SDS011;64265;51.664;7.626;2023-06-14T06:00:34;3.30;;;3.00;;
2362;SDS011;64265;51.664;7.626;2023-06-14T06:03:01;3.70;;;3.40;;
2362;SDS011;64265;51.664;7.626;2023-06-14T06:05:28;3.40;;;3.10;;
2362;SDS011;64265;51.664;7.626;2023-06-14T06:07:54;4.33;;;3.93;;
2362;SDS011;64265;51.664;7.626;2023-06-14T06:10:21;3.63;;;3.33;;
2362;SDS011;64265;51.664;7.626;2023-06-14T06:12:48;3.63;;;3.33;;
2362;SDS011;64265;51.664;7.626;2023-06-14T06:15:17;5.30;;;3.30;;
2362;SDS011;64265;51.664;7.626;2023-06-14T06:17:45;3.27;;;2.97;;
2362;SDS011;64265;51.664;7.626;2023-06-14T06:20:12;3.67;;;3.37;;
2362;SDS011;64265;51.664;7.626;2023-06-14T06:22:38;5.60;;;3.20;;
2362;SDS011;64265;51.664;7.626;2023-06-14T06:25:06;5.27;;;3.00;;
2362;SDS011;64265;51.664;7.626;2023-06-14T06:27:33;2.80;;;2.60;;
2362;SDS011;64265;51.664;7.626;2023-06-14T06:30:01;3.50;;;2.60;;
2362;SDS011;64265;51.664;7.626;2023-06-14T06:32:27;3.73;;;2.53;;
2362;SDS011;64265;51.664;7.626;2023-06-14T06:34:55;2.53;;;2.17;;
2362;SDS011;64265;51.664;7.626;2023-06-14T06:37:22;3.20;;;2.90;;
2362;SDS011;64265;51.664;7.626;2023-06-14T06:39:49;3.43;;;2.70;;
2362;SDS011;64265;51.664;7.626;2023-06-14T06:42:15;3.30;;;2.30;;
2362;SDS011;64265;51.664;7.626;2023-06-14T06:44:42;5.40;;;3.00;;
2362;SDS011;64265;51.664;7.626;2023-06-14T06:47:08;6.50;;;2.50;;
2362;SDS011;64265;51.664;7.626;2023-06-14T06:49:36;3.10;;;2.80;;
2362;SDS011;64265;51.664;7.626;2023-06-14T06:52:05;3.77;;;2.13;;
2362;SDS011;64265;51.664;7.626;2023-06-14T06:54:32;6.00;;;2.73;;
2362;SDS011;64265;51.664;7.626;2023-06-14T06:57:00;5.00;;;3.00;;
2362;SDS011;64265;51.664;7.626;2023-06-14T06:59:27;4.90;;;2.37;;
2362;SDS011;64265;51.664;7.626;2023-06-14T07:01:54;4.13;;;2.50;;
2362;SDS011;64265;51.664;7.626;2023-06-14T07:04:21;2.43;;;2.23;;
2362;SDS011;64265;51.664;7.626;2023-06-14T07:06:47;3.83;;;2.57;;
2362;SDS011;64265;51.664;7.626;2023-06-14T07:09:15;2.60;;;2.27;;
2362;SDS011;64265;51.664;7.626;2023-06-14T07:11:44;2.30;;;2.10;;
2362;SDS011;64265;51.664;7.626;2023-06-14T07:14:13;2.40;;;2.07;;
2362;SDS011;64265;51.664;7.626;2023-06-14T07:16:39;6.13;;;2.00;;
2362;SDS011;64265;51.664;7.626;2023-06-14T07:19:06;5.10;;;2.40;;
2362;SDS011;64265;51.664;7.626;2023-06-14T07:21:34;2.47;;;2.03;;
2362;SDS011;64265;51.664;7.626;2023-06-14T07:24:02;2.33;;;2.07;;
2362;SDS011;64265;51.664;7.626;2023-06-14T07:26:32;3.60;;;2.47;;
2362;SDS011;64265;51.664;7.626;2023-06-14T07:28:58;5.23;;;2.40;;
2362;SDS011;64265;51.664;7.626;2023-06-14T07:31:25;1.63;;;1.53;;
2362;SDS011;64265;51.664;7.626;2023-06-14T07:33:52;2.20;;;1.80;;
2362;SDS011;64265;51.664;7.626;2023-06-14T07:36:19;2.00;;;1.80;;
2362;SDS011;64265;51.664;7.626;2023-06-14T07:38:46;3.50;;;2.00;;
2362;SDS011;64265;51.664;7.626;2023-06-14T07:41:13;2.10;;;1.20;;
2362;SDS011;64265;51.664;7.626;2023-06-14T07:43:41;3.53;;;1.50;;
2362;SDS011;64265;51.664;7.626;2023-06-14T07:46:07;3.53;;;1.40;;
2362;SDS011;64265;51.664;7.626;2023-06-14T07:48:35;2.23;;;2.03;;
2362;SDS011;64265;51.664;7.626;2023-06-14T07:51:01;4.20;;;1.33;;
2362;SDS011;64265;51.664;7.626;2023-06-14T07:53:28;2.73;;;1.63;;
2362;SDS011;64265;51.664;7.626;2023-06-14T07:55:56;2.43;;;1.50;;
2362;SDS011;64265;51.664;7.626;2023-06-14T07:58:23;2.07;;;1.87;;
2362;SDS011;64265;51.664;7.626;2023-06-14T08:00:51;2.47;;;1.80;;
2362;SDS011;64265;51.664;7.626;2023-06-14T08:03:17;2.73;;;1.60;;
2362;SDS011;64265;51.664;7.626;2023-06-14T08:05:44;1.33;;;1.17;;
2362;SDS011;64265;51.664;7.626;2023-06-14T08:08:11;2.50;;;1.87;;
2362;SDS011;64265;51.664;7.626;2023-06-14T08:10:38;2.47;;;1.50;;
2362;SDS011;64265;51.664;7.626;2023-06-14T08:13:04;1.20;;;1.10;;
2362;SDS011;64265;51.664;7.626;2023-06-14T08:15:31;4.10;;;2.00;;
2362;SDS011;64265;51.664;7.626;2023-06-14T08:18:00;2.00;;;1.50;;
2362;SDS011;64265;51.664;7.626;2023-06-14T08:20:27;2.40;;;2.17;;
2362;SDS011;64265;51.664;7.626;2023-06-14T08:22:55;5.30;;;1.70;;
2362;SDS011;64265;51.664;7.626;2023-06-14T08:25:22;1.50;;;1.40;;
2362;SDS011;64265;51.664;7.626;2023-06-14T08:27:48;4.50;;;1.70;;
2362;SDS011;64265;51.664;7.626;2023-06-14T08:30:16;1.67;;;1.30;;
2362;SDS011;64265;51.664;7.626;2023-06-14T08:32:43;2.60;;;1.50;;
2362;SDS011;64265;51.664;7.626;2023-06-14T08:35:11;2.20;;;1.80;;
2362;SDS011;64265;51.664;7.626;2023-06-14T08:37:39;1.90;;;1.63;;
2362;SDS011;64265;51.664;7.626;2023-06-14T08:40:07;2.57;;;1.40;;
2362;SDS011;64265;51.664;7.626;2023-06-14T08:42:44;1.33;;;1.20;;
2362;SDS011;64265;51.664;7.626;2023-06-14T08:45:13;2.30;;;1.50;;
2362;SDS011;64265;51.664;7.626;2023-06-14T08:47:40;1.23;;;1.13;;
2362;SDS011;64265;51.664;7.626;2023-06-14T08:50:07;2.43;;;2.23;;
2362;SDS011;64265;51.664;7.626;2023-06-14T08:52:37;1.50;;;1.37;;
2362;SDS011;64265;51.664;7.626;2023-06-14T08:55:05;1.57;;;1.37;;
2362;SDS011;64265;51.664;7.626;2023-06-14T08:57:33;2.50;;;1.17;;
2362;SDS011;64265;51.664;7.626;2023-06-14T09:00:03;1.60;;;1.43;;
2362;SDS011;64265;51.664;7.626;2023-06-14T09:02:36;1.50;;;1.40;;
2362;SDS011;64265;51.664;7.626;2023-06-14T09:05:03;3.57;;;1.60;;
2362;SDS011;64265;51.664;7.626;2023-06-14T09:07:30;4.60;;;1.37;;
2362;SDS011;64265;51.664;7.626;2023-06-14T09:10:06;1.67;;;1.30;;
2362;SDS011;64265;51.664;7.626;2023-06-14T09:12:35;1.57;;;1.13;;
2362;SDS011;64265;51.664;7.626;2023-06-14T09:15:01;1.70;;;1.53;;
2362;SDS011;64265;51.664;7.626;2023-06-14T09:17:32;3.10;;;2.10;;
2362;SDS011;64265;51.664;7.626;2023-06-14T09:19:58;5.97;;;1.53;;
2362;SDS011;64265;51.664;7.626;2023-06-14T09:22:25;1.50;;;1.40;;
2362;SDS011;64265;51.664;7.626;2023-06-14T09:24:55;2.73;;;1.43;;
2362;SDS011;64265;51.664;7.626;2023-06-14T09:27:23;1.40;;;1.30;;
2362;SDS011;64265;51.664;7.626;2023-06-14T09:29:51;2.50;;;1.20;;
2362;SDS011;64265;51.664;7.626;2023-06-14T09:32:18;4.03;;;1.40;;
2362;SDS011;64265;51.664;7.626;2023-06-14T09:34:45;5.90;;;1.77;;
2362;SDS011;64265;51.664;7.626;2023-06-14T09:37:12;2.43;;;1.47;;
2362;SDS011;64265;51.664;7.626;2023-06-14T09:39:48;4.23;;;1.40;;
2362;SDS011;64265;51.664;7.626;2023-06-14T09:42:16;1.90;;;1.30;;
2362;SDS011;64265;51.664;7.626;2023-06-14T09:44:45;3.13;;;1.30;;
2362;SDS011;64265;51.664;7.626;2023-06-14T09:47:14;2.00;;;1.60;;
2362;SDS011;64265;51.664;7.626;2023-06-14T09:49:41;1.40;;;1.30;;
2362;SDS011;64265;51.664;7.626;2023-06-14T09:52:08;1.50;;;1.30;;
2362;SDS011;64265;51.664;7.626;2023-06-14T09:54:39;2.37;;;1.50;;
2362;SDS011;64265;51.664;7.626;2023-06-14T09:57:07;1.60;;;1.43;;
2362;SDS011;64265;51.664;7.626;2023-06-14T09:59:36;1.50;;;1.37;;
2362;SDS011;64265;51.664;7.626;2023-06-14T10:02:10;1.93;;;1.20;;
2362;SDS011;64265;51.664;7.626;2023-06-14T10:04:40;1.70;;;1.30;;
2362;SDS011;64265;51.664;7.626;2023-06-14T10:07:18;1.60;;;1.40;;
2362;SDS011;64265;51.664;7.626;2023-06-14T10:09:46;1.80;;;1.70;;
2362;SDS011;64265;51.664;7.626;2023-06-14T10:12:15;1.97;;;1.50;;
2362;SDS011;64265;51.664;7.626;2023-06-14T10:14:45;1.77;;;1.40;;
2362;SDS011;64265;51.664;7.626;2023-06-14T10:17:17;2.00;;;1.80;;
2362;SDS011;64265;51.664;7.626;2023-06-14T10:19:53;1.50;;;1.23;;
2362;SDS011;64265;51.664;7.626;2023-06-14T10:22:23;1.50;;;1.20;;
2362;SDS011;64265;51.664;7.626;2023-06-14T10:24:58;1.33;;;1.23;;
2362;SDS011;64265;51.664;7.626;2023-06-14T10:27:26;1.30;;;1.20;;
2362;SDS011;64265;51.664;7.626;2023-06-14T10:30:01;1.77;;;1.60;;
2362;SDS011;64265;51.664;7.626;2023-06-14T10:32:31;1.93;;;1.47;;
2362;SDS011;64265;51.664;7.626;2023-06-14T10:34:58;1.80;;;1.60;;
2362;SDS011;64265;51.664;7.626;2023-06-14T10:37:26;1.43;;;1.20;;
2362;SDS011;64265;51.664;7.626;2023-06-14T10:39:53;1.37;;;1.20;;
2362;SDS011;64265;51.664;7.626;2023-06-14T10:42:19;1.40;;;1.17;;
2362;SDS011;64265;51.664;7.626;2023-06-14T10:44:49;2.27;;;1.30;;
2362;SDS011;64265;51.664;7.626;2023-06-14T10:47:21;2.53;;;1.07;;
2362;SDS011;64265;51.664;7.626;2023-06-14T10:49:51;1.60;;;1.50;;
2362;SDS011;64265;51.664;7.626;2023-06-14T10:52:26;6.90;;;1.50;;
2362;SDS011;64265;51.664;7.626;2023-06-14T10:57:44;1.60;;;1.40;;
2362;SDS011;64265;51.664;7.626;2023-06-14T11:00:15;1.57;;;1.30;;
2362;SDS011;64265;51.664;7.626;2023-06-14T11:02:52;1.67;;;1.57;;
2362;SDS011;64265;51.664;7.626;2023-06-14T11:05:51;2.50;;;1.63;;
2362;SDS011;64265;51.664;7.626;2023-06-14T11:08:27;1.40;;;1.17;;
2362;SDS011;64265;51.664;7.626;2023-06-14T11:11:12;1.83;;;1.20;;
2362;SDS011;64265;51.664;7.626;2023-06-14T11:13:41;1.30;;;1.20;;
2362;SDS011;64265;51.664;7.626;2023-06-14T11:16:10;1.80;;;1.50;;
2362;SDS011;64265;51.664;7.626;2023-06-14T11:18:38;4.20;;;1.27;;
2362;SDS011;64265;51.664;7.626;2023-06-14T11:21:06;1.73;;;1.20;;
2362;SDS011;64265;51.664;7.626;2023-06-14T11:23:33;1.50;;;1.30;;
2362;SDS011;64265;51.664;7.626;2023-06-14T11:26:00;2.30;;;1.77;;
2362;SDS011;64265;51.664;7.626;2023-06-14T11:28:35;1.30;;;1.10;;
2362;SDS011;64265;51.664;7.626;2023-06-14T11:31:03;1.20;;;1.10;;
2362;SDS011;64265;51.664;7.626;2023-06-14T11:33:30;1.63;;;1.53;;
2362;SDS011;64265;51.664;7.626;2023-06-14T11:35:57;1.57;;;1.23;;
2362;SDS011;64265;51.664;7.626;2023-06-14T11:38:25;1.43;;;1.30;;
2362;SDS011;64265;51.664;7.626;2023-06-14T11:40:52;1.30;;;1.20;;
2362;SDS011;64265;51.664;7.626;2023-06-14T11:43:19;1.60;;;1.40;;
2362;SDS011;64265;51.664;7.626;2023-06-14T11:45:47;1.60;;;1.20;;
2362;SDS011;64265;51.664;7.626;2023-06-14T11:48:14;1.20;;;1.10;;
2362;SDS011;64265;51.664;7.626;2023-06-14T11:50:41;2.00;;;1.53;;
2362;SDS011;64265;51.664;7.626;2023-06-14T11:53:08;1.30;;;1.10;;
2362;SDS011;64265;51.664;7.626;2023-06-14T11:55:37;1.30;;;1.17;;
2362;SDS011;64265;51.664;7.626;2023-06-14T11:58:05;2.10;;;1.93;;
2362;SDS011;64265;51.664;7.626;2023-06-14T12:00:32;1.50;;;1.20;;
2362;SDS011;64265;51.664;7.626;2023-06-14T12:03:01;1.60;;;1.20;;
2362;SDS011;64265;51.664;7.626;2023-06-14T12:05:28;1.10;;;1.00;;
2362;SDS011;64265;51.664;7.626;2023-06-14T12:07:58;1.30;;;1.20;;
2362;SDS011;64265;51.664;7.626;2023-06-14T12:10:26;1.30;;;1.10;;
2362;SDS011;64265;51.664;7.626;2023-06-14T12:12:59;2.30;;;1.30;;
2362;SDS011;64265;51.664;7.626;2023-06-14T12:15:27;1.70;;;1.50;;
2362;SDS011;64265;51.664;7.626;2023-06-14T12:17:55;1.23;;;1.07;;
2362;SDS011;64265;51.664;7.626;2023-06-14T12:20:21;1.30;;;1.20;;
2362;SDS011;64265;51.664;7.626;2023-06-14T12:22:53;2.10;;;1.90;;
2362;SDS011;64265;51.664;7.626;2023-06-14T12:25:26;1.30;;;1.10;;
2362;SDS011;64265;51.664;7.626;2023-06-14T12:27:55;1.20;;;1.10;;
2362;SDS011;64265;51.664;7.626;2023-06-14T12:30:24;1.63;;;1.20;;
2362;SDS011;64265;51.664;7.626;2023-06-14T12:32:51;2.70;;;1.13;;
2362;SDS011;64265;51.664;7.626;2023-06-14T12:35:17;1.30;;;1.13;;
2362;SDS011;64265;51.664;7.626;2023-06-14T12:37:45;1.30;;;1.20;;
2362;SDS011;64265;51.664;7.626;2023-06-14T12:40:12;2.47;;;1.17;;
2362;SDS011;64265;51.664;7.626;2023-06-14T12:42:39;2.13;;;1.20;;
2362;SDS011;64265;51.664;7.626;2023-06-14T12:45:06;1.20;;;1.10;;
2362;SDS011;64265;51.664;7.626;2023-06-14T12:47:35;2.80;;;1.30;;
2362;SDS011;64265;51.664;7.626;2023-06-14T12:50:02;1.10;;;0.90;;
2362;SDS011;64265;51.664;7.626;2023-06-14T12:52:29;1.10;;;1.00;;
2362;SDS011;64265;51.664;7.626;2023-06-14T12:54:55;1.57;;;1.47;;
2362;SDS011;64265;51.664;7.626;2023-06-14T12:57:22;1.43;;;1.10;;
2362;SDS011;64265;51.664;7.626;2023-06-14T12:59:49;2.07;;;1.53;;
2362;SDS011;64265;51.664;7.626;2023-06-14T13:02:16;1.50;;;1.30;;
2362;SDS011;64265;51.664;7.626;2023-06-14T13:04:48;1.83;;;1.30;;
2362;SDS011;64265;51.664;7.626;2023-06-14T13:07:15;3.10;;;1.40;;
2362;SDS011;64265;51.664;7.626;2023-06-14T13:09:41;1.53;;;1.37;;
2362;SDS011;64265;51.664;7.626;2023-06-14T13:12:09;1.20;;;1.10;;
2362;SDS011;64265;51.664;7.626;2023-06-14T13:14:37;4.63;;;1.80;;
2362;SDS011;64265;51.664;7.626;2023-06-14T13:17:04;1.23;;;1.10;;
2362;SDS011;64265;51.664;7.626;2023-06-14T13:19:31;1.40;;;1.20;;
2362;SDS011;64265;51.664;7.626;2023-06-14T13:21:59;1.73;;;1.20;;
2362;SDS011;64265;51.664;7.626;2023-06-14T13:24:26;1.50;;;1.40;;
2362;SDS011;64265;51.664;7.626;2023-06-14T13:26:54;1.27;;;1.10;;
2362;SDS011;64265;51.664;7.626;2023-06-14T13:29:21;2.40;;;1.13;;
2362;SDS011;64265;51.664;7.626;2023-06-14T13:31:48;1.53;;;1.43;;
2362;SDS011;64265;51.664;7.626;2023-06-14T13:34:15;1.87;;;1.60;;
2362;SDS011;64265;51.664;7.626;2023-06-14T13:36:42;1.50;;;1.40;;
2362;SDS011;64265;51.664;7.626;2023-06-14T13:39:10;1.90;;;1.47;;
2362;SDS011;64265;51.664;7.626;2023-06-14T13:41:37;1.30;;;1.20;;
2362;SDS011;64265;51.664;7.626;2023-06-14T13:44:04;2.03;;;1.20;;
2362;SDS011;64265;51.664;7.626;2023-06-14T13:46:30;3.80;;;1.37;;
2362;SDS011;64265;51.664;7.626;2023-06-14T13:48:57;3.17;;;2.07;;
2362;SDS011;64265;51.664;7.626;2023-06-14T13:51:26;2.27;;;1.40;;
2362;SDS011;64265;51.664;7.626;2023-06-14T13:53:52;1.40;;;1.27;;
2362;SDS011;64265;51.664;7.626;2023-06-14T13:56:21;3.10;;;1.47;;
2362;SDS011;64265;51.664;7.626;2023-06-14T13:58:49;1.70;;;1.60;;
2362;SDS011;64265;51.664;7.626;2023-06-14T14:01:16;2.17;;;1.83;;
2362;SDS011;64265;51.664;7.626;2023-06-14T14:03:44;2.63;;;1.90;;
2362;SDS011;64265;51.664;7.626;2023-06-14T14:06:11;2.60;;;1.80;;
2362;SDS011;64265;51.664;7.626;2023-06-14T14:08:38;2.37;;;1.97;;
2362;SDS011;64265;51.664;7.626;2023-06-14T14:11:06;4.23;;;1.37;;
2362;SDS011;64265;51.664;7.626;2023-06-14T14:13:35;2.70;;;1.80;;
2362;SDS011;64265;51.664;7.626;2023-06-14T14:16:02;3.03;;;1.57;;
2362;SDS011;64265;51.664;7.626;2023-06-14T14:18:29;2.33;;;1.97;;
2362;SDS011;64265;51.664;7.626;2023-06-14T14:20:57;2.20;;;2.00;;
2362;SDS011;64265;51.664;7.626;2023-06-14T14:23:25;2.63;;;1.97;;
2362;SDS011;64265;51.664;7.626;2023-06-14T14:25:52;2.10;;;2.00;;
2362;SDS011;64265;51.664;7.626;2023-06-14T14:28:19;2.37;;;2.03;;
2362;SDS011;64265;51.664;7.626;2023-06-14T14:30:47;2.00;;;1.90;;
2362;SDS011;64265;51.664;7.626;2023-06-14T14:33:14;2.40;;;2.20;;
2362;SDS011;64265;51.664;7.626;2023-06-14T14:35:42;1.80;;;1.70;;
2362;SDS011;64265;51.664;7.626;2023-06-14T14:38:10;2.13;;;1.80;;
2362;SDS011;64265;51.664;7.626;2023-06-14T14:40:37;2.13;;;1.73;;
2362;SDS011;64265;51.664;7.626;2023-06-14T14:43:05;2.00;;;1.80;;
2362;SDS011;64265;51.664;7.626;2023-06-14T14:45:31;6.07;;;1.87;;
2362;SDS011;64265;51.664;7.626;2023-06-14T14:48:00;2.23;;;1.90;;
2362;SDS011;64265;51.664;7.626;2023-06-14T14:50:27;3.40;;;1.70;;
2362;SDS011;64265;51.664;7.626;2023-06-14T14:52:54;2.20;;;1.60;;
2362;SDS011;64265;51.664;7.626;2023-06-14T14:55:21;2.30;;;2.10;;
2362;SDS011;64265;51.664;7.626;2023-06-14T14:57:47;2.07;;;1.87;;
2362;SDS011;64265;51.664;7.626;2023-06-14T15:00:14;3.23;;;2.30;;
2362;SDS011;64265;51.664;7.626;2023-06-14T15:02:42;2.23;;;2.03;;
2362;SDS011;64265;51.664;7.626;2023-06-14T15:05:10;3.00;;;2.17;;
2362;SDS011;64265;51.664;7.626;2023-06-14T15:07:37;2.50;;;1.63;;